Mackey Bar, Idaho
Current Conditions -  °F | °C
As of 11:51 AM on Friday 28 Nov 2014 (Local Time) from KMYL Reporting Station
Overcast Overcast  
Wind Chill: 39°   Ceiling: 4900
Heat Index: 42°   Visibility: 10mi
Dew Point: 27°   Wind: 5mph
Humidity: 55%   Direction: NA
Pressure: 29.76"   Gusts: 24mph
Location:  44.4236°N, 115.8°W
Report Text: KMYL 281851Z AUTO VRB04G21KT 10SM FEW041 BKN049 OVC065 06/M03 A2976 RMK AO2 SLP082 T00561028
Loading
Personal Weather Stations






























Interactive Weather Map New forecast layout! Learn more

10-Day Weather Forecast

Advertisements
Track Severe Weather on mobile